Time;durP1;ratioP1;P1;durP2;ratioP2;P2;SDS_P1;SDS_P2;PMS_P1;PMS_P2;Temp;Humidity;BMP_temperature;BMP_pressure;BME280_temperature;BME280_humidity;BME280_pressure;Samples;Min_cycle;Max_cycle;Signal;HPM_P1;HPM_P2
2023/07/31 00:00:14;;;;;;;11.07;6.10;;;17.70;99.90;;;;;;5052607;28;20025;-59
2023/07/31 00:02:41;;;;;;;9.95;6.13;;;17.90;99.90;;;;;;5052577;28;20440;-59
2023/07/31 00:05:08;;;;;;;11.23;6.40;;;17.90;99.90;;;;;;5052732;28;20401;-59
2023/07/31 00:07:33;;;;;;;11.35;6.32;;;18.10;99.90;;;;;;5052567;28;20112;-59
2023/07/31 00:09:59;;;;;;;10.57;5.93;;;18.00;99.90;;;;;;5052914;28;20517;-59
2023/07/31 00:12:25;;;;;;;13.77;5.85;;;18.00;99.90;;;;;;5052136;28;20025;-59
2023/07/31 00:14:51;;;;;;;12.70;6.53;;;18.00;99.90;;;;;;5052572;28;20114;-59
2023/07/31 00:17:17;;;;;;;12.00;6.32;;;18.00;99.90;;;;;;5052162;28;20406;-60
2023/07/31 00:19:43;;;;;;;12.02;6.03;;;18.00;99.90;;;;;;5051974;28;20029;-59
2023/07/31 00:22:08;;;;;;;10.35;5.82;;;18.00;99.90;;;;;;5052290;28;20029;-58
2023/07/31 00:24:34;;;;;;;13.55;6.43;;;17.90;99.90;;;;;;5052099;28;20052;-59
2023/07/31 00:26:59;;;;;;;11.05;5.97;;;17.80;99.90;;;;;;5051247;28;20021;-59
2023/07/31 00:29:25;;;;;;;10.80;6.00;;;17.60;99.90;;;;;;5052242;28;20040;-59
2023/07/31 00:31:51;;;;;;;10.77;6.15;;;17.40;99.90;;;;;;5052290;28;20032;-59
2023/07/31 00:34:16;;;;;;;14.20;6.65;;;17.30;99.90;;;;;;5052081;28;20033;-59
2023/07/31 00:36:42;;;;;;;12.60;6.18;;;17.20;99.90;;;;;;5051847;28;20040;-60
2023/07/31 00:39:08;;;;;;;12.68;5.65;;;17.10;99.90;;;;;;5052044;28;20025;-60
2023/07/31 00:41:33;;;;;;;12.52;6.45;;;17.00;99.90;;;;;;5051984;28;20052;-59
2023/07/31 00:43:59;;;;;;;11.55;6.13;;;17.00;99.90;;;;;;5052296;28;20100;-59
2023/07/31 00:46:25;;;;;;;10.50;5.70;;;16.90;99.90;;;;;;5051770;28;20474;-59
2023/07/31 00:48:50;;;;;;;11.38;6.35;;;17.00;99.90;;;;;;5050727;28;20017;-59
2023/07/31 00:51:16;;;;;;;10.43;6.00;;;16.90;99.90;;;;;;5051690;28;20037;-59
2023/07/31 00:53:43;;;;;;;13.55;6.20;;;16.80;99.90;;;;;;5052031;28;20023;-59
2023/07/31 00:56:10;;;;;;;10.07;6.00;;;16.70;99.90;;;;;;5051558;28;20112;-59
2023/07/31 00:58:36;;;;;;;12.02;5.95;;;16.70;99.90;;;;;;5051695;28;20029;-60
2023/07/31 01:01:02;;;;;;;11.68;6.07;;;16.70;99.90;;;;;;5051852;28;20029;-60
2023/07/31 01:03:28;;;;;;;12.15;6.25;;;16.60;99.90;;;;;;5051282;28;20108;-60
2023/07/31 01:05:53;;;;;;;13.48;6.30;;;16.60;99.90;;;;;;5051569;28;20028;-60
2023/07/31 01:08:51;;;;;;;13.75;6.38;;;16.60;99.90;;;;;;5051505;28;20049;-60
2023/07/31 01:11:27;;;;;;;10.55;5.65;;;16.50;99.90;;;;;;5051433;28;20370;-59
2023/07/31 01:13:54;;;;;;;11.57;6.30;;;16.60;99.90;;;;;;5051405;28;20086;-59
2023/07/31 01:16:20;;;;;;;12.00;6.13;;;16.90;99.90;;;;;;5051113;28;20037;-59
2023/07/31 01:18:45;;;;;;;11.45;5.85;;;17.00;99.90;;;;;;5051234;28;20028;-59
2023/07/31 01:21:28;;;;;;;9.82;5.95;;;17.10;99.90;;;;;;5051403;28;20036;-60
2023/07/31 01:24:10;;;;;;;10.60;5.95;;;17.10;99.90;;;;;;5051140;28;20053;-59
2023/07/31 01:26:39;;;;;;;11.18;5.88;;;17.00;99.90;;;;;;5051247;28;20505;-59
2023/07/31 01:29:25;;;;;;;9.77;5.68;;;16.90;99.90;;;;;;5051100;28;20032;-59
2023/07/31 01:31:55;;;;;;;10.13;6.00;;;17.00;99.90;;;;;;5050929;28;20048;-59
2023/07/31 01:34:22;;;;;;;12.57;6.05;;;17.00;99.90;;;;;;5051119;28;20032;-60
2023/07/31 01:36:48;;;;;;;8.43;5.47;;;17.00;99.90;;;;;;5051278;28;20398;-59
2023/07/31 01:39:15;;;;;;;11.95;5.90;;;17.00;99.90;;;;;;5051218;28;20078;-59
2023/07/31 01:41:41;;;;;;;10.82;6.15;;;16.90;99.90;;;;;;5051043;28;20037;-60
2023/07/31 01:44:06;;;;;;;10.52;5.88;;;16.70;99.90;;;;;;5050929;28;20032;-60
2023/07/31 01:46:32;;;;;;;9.00;5.53;;;16.40;99.90;;;;;;5050692;28;20083;-60
2023/07/31 01:48:58;;;;;;;12.13;6.00;;;16.30;99.90;;;;;;5051363;28;20087;-60
2023/07/31 01:51:23;;;;;;;12.60;6.30;;;16.20;99.90;;;;;;5050866;28;20086;-59
2023/07/31 01:53:49;;;;;;;10.55;6.38;;;16.10;99.90;;;;;;5051395;28;20025;-59
2023/07/31 01:56:15;;;;;;;11.98;6.25;;;16.10;99.90;;;;;;5050938;28;20072;-60
2023/07/31 01:58:41;;;;;;;10.82;5.80;;;16.00;99.90;;;;;;5050928;28;20485;-60
2023/07/31 02:01:06;;;;;;;9.40;5.82;;;16.00;99.90;;;;;;5052769;28;20401;-59
2023/07/31 02:03:32;;;;;;;12.02;6.18;;;16.00;99.90;;;;;;5055084;28;20517;-59
2023/07/31 02:05:58;;;;;;;10.50;6.00;;;16.00;99.90;;;;;;5055002;28;20490;-59
2023/07/31 02:08:23;;;;;;;13.40;6.43;;;15.90;99.90;;;;;;5054954;28;20430;-59
2023/07/31 02:10:49;;;;;;;10.77;6.07;;;15.80;99.90;;;;;;5054863;28;20501;-59
2023/07/31 02:13:14;;;;;;;11.57;5.60;;;15.80;99.90;;;;;;5054992;28;20025;-60
2023/07/31 02:15:40;;;;;;;10.32;6.18;;;15.80;99.90;;;;;;5054380;28;20304;-59
2023/07/31 02:18:06;;;;;;;8.80;5.93;;;15.90;99.90;;;;;;5054545;28;20043;-59
2023/07/31 02:20:34;;;;;;;12.80;6.03;;;15.90;99.90;;;;;;5054781;28;20029;-59
2023/07/31 02:23:00;;;;;;;10.60;6.20;;;15.80;99.90;;;;;;5054567;28;20071;-60
2023/07/31 02:25:26;;;;;;;10.68;6.18;;;15.70;99.90;;;;;;5054376;28;20163;-59
2023/07/31 02:27:51;;;;;;;11.95;6.32;;;15.70;99.90;;;;;;5054894;28;20077;-59
2023/07/31 02:30:17;;;;;;;11.60;6.20;;;15.90;99.90;;;;;;5054152;28;20714;-60
2023/07/31 02:32:43;;;;;;;12.80;5.85;;;16.10;99.90;;;;;;5054329;28;20117;-60
2023/07/31 02:35:08;;;;;;;9.77;5.70;;;16.20;99.90;;;;;;5054336;28;20063;-59
2023/07/31 02:37:34;;;;;;;10.75;6.20;;;16.30;99.90;;;;;;5054858;28;20029;-59
2023/07/31 02:40:00;;;;;;;11.20;5.95;;;16.40;99.90;;;;;;5054416;28;20036;-59
2023/07/31 02:42:25;;;;;;;11.20;6.13;;;16.60;99.90;;;;;;5054044;28;20036;-59
2023/07/31 02:44:55;;;;;;;12.68;6.25;;;16.50;99.90;;;;;;5053871;28;20029;-59
2023/07/31 02:47:21;;;;;;;12.13;5.75;;;16.60;99.90;;;;;;5054156;28;20394;-59
2023/07/31 02:49:47;;;;;;;9.38;5.90;;;16.50;99.90;;;;;;5054357;28;20101;-59
2023/07/31 02:52:13;;;;;;;10.57;6.03;;;16.50;99.90;;;;;;5054094;28;20415;-59
2023/07/31 02:54:38;;;;;;;10.10;5.68;;;16.50;99.90;;;;;;5054029;28;20114;-59
2023/07/31 02:57:04;;;;;;;10.90;6.07;;;16.40;99.90;;;;;;5054132;28;20155;-59
2023/07/31 02:59:30;;;;;;;9.50;5.88;;;16.20;99.90;;;;;;5053567;28;20078;-59
2023/07/31 03:01:56;;;;;;;10.93;5.72;;;15.90;99.90;;;;;;5053931;28;20036;-60
2023/07/31 03:04:21;;;;;;;8.77;5.97;;;15.80;99.90;;;;;;5053919;28;20028;-59
2023/07/31 03:06:47;;;;;;;10.40;6.50;;;15.70;99.90;;;;;;5053779;28;20033;-59
2023/07/31 03:09:13;;;;;;;10.43;5.88;;;15.70;99.90;;;;;;5053901;28;20021;-59
2023/07/31 03:11:38;;;;;;;11.77;6.35;;;15.60;99.90;;;;;;5053410;28;20546;-59
2023/07/31 03:14:04;;;;;;;10.18;6.00;;;15.60;99.90;;;;;;5052988;28;20061;-59
2023/07/31 03:16:29;;;;;;;11.43;6.70;;;15.60;99.90;;;;;;5053528;28;20082;-59
2023/07/31 03:18:55;;;;;;;10.70;6.05;;;15.50;99.90;;;;;;5053643;28;20025;-60
2023/07/31 03:21:21;;;;;;;12.80;6.40;;;15.50;99.90;;;;;;5053549;28;20044;-60
2023/07/31 03:23:46;;;;;;;12.20;6.80;;;15.40;99.90;;;;;;5053809;28;20025;-60
2023/07/31 03:26:12;;;;;;;12.00;6.25;;;15.50;99.90;;;;;;5053254;28;20029;-60
2023/07/31 03:28:38;;;;;;;11.38;6.03;;;15.40;99.90;;;;;;5053079;28;20075;-60
2023/07/31 03:31:03;;;;;;;12.30;6.05;;;15.30;99.90;;;;;;5053336;28;20107;-59
2023/07/31 03:33:29;;;;;;;10.60;6.53;;;15.40;99.90;;;;;;5053588;28;20017;-59
2023/07/31 03:35:55;;;;;;;9.80;6.05;;;15.30;99.90;;;;;;5053239;28;20438;-59
2023/07/31 03:38:20;;;;;;;9.20;6.05;;;15.30;99.90;;;;;;5053242;28;20529;-60
2023/07/31 03:40:46;;;;;;;10.82;6.55;;;15.30;99.90;;;;;;5053057;28;20044;-60
2023/07/31 03:43:12;;;;;;;10.82;6.10;;;15.30;99.90;;;;;;5051949;28;20398;-59
2023/07/31 03:45:38;;;;;;;10.05;5.93;;;15.50;99.90;;;;;;5053013;28;20099;-59
2023/07/31 03:48:04;;;;;;;11.20;6.35;;;15.70;99.90;;;;;;5051757;28;20056;-59
2023/07/31 03:50:30;;;;;;;9.70;5.88;;;15.90;99.90;;;;;;5053008;28;20096;-59
2023/07/31 03:52:55;;;;;;;10.40;5.82;;;16.10;99.90;;;;;;5053315;28;20079;-59
2023/07/31 03:55:24;;;;;;;11.52;6.03;;;16.10;99.90;;;;;;5052985;28;20040;-59
2023/07/31 03:57:49;;;;;;;10.20;5.63;;;16.10;99.90;;;;;;5052611;28;20029;-59
2023/07/31 04:00:15;;;;;;;11.18;5.75;;;16.10;99.90;;;;;;5053222;28;20370;-60
2023/07/31 04:02:41;;;;;;;10.77;6.03;;;16.10;99.90;;;;;;5052750;28;20397;-60
2023/07/31 04:05:07;;;;;;;11.23;5.60;;;16.20;99.90;;;;;;5052724;28;20025;-60
2023/07/31 04:07:33;;;;;;;10.10;5.93;;;16.10;99.90;;;;;;5052722;28;20025;-60
2023/07/31 04:10:00;;;;;;;11.95;5.95;;;16.10;99.90;;;;;;5052594;28;20402;-59
2023/07/31 04:12:25;;;;;;;12.13;5.65;;;15.90;99.90;;;;;;5052655;28;20032;-60
2023/07/31 04:14:51;;;;;;;13.13;6.20;;;15.70;99.90;;;;;;5051289;28;20033;-60
2023/07/31 04:17:20;;;;;;;10.73;5.97;;;15.60;99.90;;;;;;5052485;28;20556;-60
2023/07/31 04:19:45;;;;;;;9.43;5.78;;;15.50;99.90;;;;;;5052348;28;20083;-59
2023/07/31 04:22:11;;;;;;;10.20;6.10;;;15.40;99.90;;;;;;5052369;28;20120;-60
2023/07/31 04:24:36;;;;;;;9.70;6.30;;;15.30;99.90;;;;;;5052052;28;20073;-60
2023/07/31 04:27:02;;;;;;;11.48;6.35;;;15.30;99.90;;;;;;5051840;28;20079;-60
2023/07/31 04:29:28;;;;;;;10.98;6.13;;;15.20;99.90;;;;;;5052219;28;20521;-60
2023/07/31 04:31:54;;;;;;;13.18;6.50;;;15.20;99.90;;;;;;5052608;28;20013;-60
2023/07/31 04:34:19;;;;;;;12.20;6.47;;;15.20;99.90;;;;;;5052272;28;20091;-59
2023/07/31 04:36:45;;;;;;;10.70;6.38;;;15.10;99.90;;;;;;5051860;28;20498;-60
2023/07/31 04:39:11;;;;;;;10.85;6.32;;;15.00;99.90;;;;;;5051991;28;20449;-59
2023/07/31 04:41:36;;;;;;;8.55;5.85;;;15.00;99.90;;;;;;5051592;28;20028;-60
2023/07/31 04:44:03;;;;;;;11.45;6.00;;;15.00;99.90;;;;;;5050753;28;20116;-60
2023/07/31 04:46:29;;;;;;;13.95;6.18;;;15.00;99.90;;;;;;5051982;28;20099;-60
2023/07/31 04:48:55;;;;;;;11.93;6.70;;;15.00;99.90;;;;;;5052118;28;20546;-59
2023/07/31 04:51:21;;;;;;;10.63;6.25;;;15.00;99.90;;;;;;5051851;28;20066;-59
2023/07/31 04:53:46;;;;;;;11.93;6.28;;;15.00;99.90;;;;;;5051655;28;20086;-59
2023/07/31 04:56:12;;;;;;;10.23;5.93;;;15.00;99.90;;;;;;5051220;28;20134;-60
2023/07/31 04:58:38;;;;;;;10.32;6.03;;;15.10;99.90;;;;;;5051955;28;20048;-59
2023/07/31 05:01:04;;;;;;;11.85;6.07;;;15.30;99.90;;;;;;5051639;28;20029;-60
2023/07/31 05:03:29;;;;;;;10.32;6.00;;;15.60;99.90;;;;;;5051601;28;20021;-59
2023/07/31 05:05:55;;;;;;;9.35;5.75;;;15.70;99.90;;;;;;5051628;28;20096;-59
2023/07/31 05:08:20;;;;;;;9.73;6.25;;;15.80;99.90;;;;;;5051623;28;20024;-60
2023/07/31 05:10:46;;;;;;;10.43;5.97;;;15.90;99.90;;;;;;5050848;28;20044;-60
2023/07/31 05:13:12;;;;;;;13.82;6.13;;;16.00;99.90;;;;;;5051839;28;20036;-59
2023/07/31 05:15:38;;;;;;;11.23;6.25;;;15.90;99.90;;;;;;5051315;28;20029;-59
2023/07/31 05:18:04;;;;;;;11.98;5.68;;;15.90;99.90;;;;;;5051248;28;20071;-60
2023/07/31 05:20:29;;;;;;;14.88;6.18;;;16.00;99.90;;;;;;5051345;28;20021;-59
2023/07/31 05:22:55;;;;;;;11.30;5.78;;;16.10;99.90;;;;;;5051204;28;20090;-60
2023/07/31 05:25:21;;;;;;;12.98;6.13;;;16.00;99.90;;;;;;5051225;28;20076;-60
2023/07/31 05:27:46;;;;;;;12.70;6.07;;;15.70;99.90;;;;;;5051263;28;20082;-59
2023/07/31 05:30:12;;;;;;;10.35;5.63;;;15.60;99.90;;;;;;5051319;28;20029;-59
2023/07/31 05:32:38;;;;;;;12.10;6.30;;;15.40;99.90;;;;;;5051458;28;20071;-60
2023/07/31 05:35:04;;;;;;;12.98;6.70;;;15.30;99.90;;;;;;5049505;28;20044;-60
2023/07/31 05:37:29;;;;;;;12.10;6.35;;;15.20;99.90;;;;;;5050895;28;20021;-59
2023/07/31 05:39:55;;;;;;;13.05;6.28;;;15.20;99.90;;;;;;5051317;28;20036;-60
2023/07/31 05:42:21;;;;;;;13.35;6.60;;;15.20;99.90;;;;;;5051174;28;20100;-60
2023/07/31 05:44:47;;;;;;;11.32;6.13;;;15.10;99.90;;;;;;5051104;28;20517;-60
2023/07/31 05:47:12;;;;;;;11.73;6.72;;;15.10;99.90;;;;;;5051264;28;20025;-59
2023/07/31 05:49:38;;;;;;;11.38;6.30;;;15.20;99.90;;;;;;5050816;28;20021;-60
2023/07/31 05:52:04;;;;;;;10.85;6.03;;;15.20;99.90;;;;;;5051220;28;20149;-59
2023/07/31 05:54:30;;;;;;;10.35;6.18;;;15.30;99.90;;;;;;5050928;28;20025;-59
2023/07/31 05:56:55;;;;;;;12.85;6.80;;;15.30;99.90;;;;;;5050795;28;20043;-59
2023/07/31 05:59:21;;;;;;;12.30;6.40;;;15.40;99.90;;;;;;5051047;28;20064;-59
2023/07/31 06:01:47;;;;;;;16.02;6.18;;;15.50;99.90;;;;;;5050897;28;20404;-60
2023/07/31 06:04:12;;;;;;;10.65;6.07;;;15.60;99.90;;;;;;5050875;28;20040;-59
2023/07/31 06:06:38;;;;;;;14.38;6.18;;;15.70;99.90;;;;;;5050753;28;20570;-60
2023/07/31 06:09:04;;;;;;;10.82;6.10;;;15.80;99.90;;;;;;5050951;28;20029;-60
2023/07/31 06:11:29;;;;;;;12.52;6.38;;;15.90;99.90;;;;;;5050729;28;20402;-59
2023/07/31 06:13:55;;;;;;;12.05;6.32;;;15.90;99.90;;;;;;5050723;28;20552;-60
2023/07/31 06:16:21;;;;;;;13.77;6.38;;;16.00;99.90;;;;;;5050658;28;20402;-59
2023/07/31 06:18:47;;;;;;;11.70;5.65;;;16.20;99.90;;;;;;5050951;28;20039;-60
2023/07/31 06:21:13;;;;;;;15.95;6.50;;;16.40;99.90;;;;;;5050693;28;20025;-59
2023/07/31 06:23:39;;;;;;;14.13;6.43;;;16.60;99.90;;;;;;5050208;28;20040;-59
2023/07/31 06:26:04;;;;;;;12.05;6.18;;;16.80;99.90;;;;;;5050549;28;20040;-60
2023/07/31 06:28:31;;;;;;;10.85;6.07;;;16.80;99.90;;;;;;5051141;28;20028;-59
2023/07/31 06:30:57;;;;;;;14.23;5.82;;;17.00;99.90;;;;;;5050563;28;20409;-60
2023/07/31 06:33:23;;;;;;;13.05;6.13;;;17.00;99.90;;;;;;5050656;28;20029;-60
2023/07/31 06:35:49;;;;;;;12.85;5.93;;;17.00;99.90;;;;;;5050526;28;20116;-59
2023/07/31 06:38:14;;;;;;;13.25;5.65;;;17.20;99.90;;;;;;5050182;28;20047;-59
2023/07/31 06:40:40;;;;;;;11.98;6.13;;;17.20;99.90;;;;;;5050880;28;20021;-59
2023/07/31 06:43:09;;;;;;;13.88;6.05;;;17.30;99.90;;;;;;5050526;28;20513;-59
2023/07/31 06:45:35;;;;;;;15.65;6.15;;;17.30;99.90;;;;;;5049166;28;20505;-59
2023/07/31 06:48:02;;;;;;;15.30;6.18;;;17.30;99.90;;;;;;5052170;28;20052;-60
2023/07/31 06:50:28;;;;;;;15.55;6.18;;;17.30;99.90;;;;;;5054565;28;20425;-59
2023/07/31 06:52:54;;;;;;;15.00;6.18;;;17.30;99.90;;;;;;5053734;28;20024;-60
2023/07/31 06:55:22;;;;;;;13.18;5.85;;;17.30;99.90;;;;;;5053876;28;20033;-59
2023/07/31 06:57:48;;;;;;;11.20;5.88;;;17.30;99.90;;;;;;5053970;28;20104;-59
2023/07/31 07:00:15;;;;;;;14.55;6.32;;;17.40;99.90;;;;;;5054350;28;20498;-58
2023/07/31 07:02:40;;;;;;;16.42;6.40;;;17.40;99.90;;;;;;5053680;28;20033;-59
2023/07/31 07:05:07;;;;;;;11.55;6.10;;;17.50;99.90;;;;;;5053834;28;20037;-60
2023/07/31 07:07:33;;;;;;;12.40;5.43;;;17.60;99.90;;;;;;5053445;28;20098;-59
2023/07/31 07:10:01;;;;;;;13.95;5.95;;;17.60;99.90;;;;;;5053788;28;20056;-60
2023/07/31 07:12:31;;;;;;;14.15;5.72;;;17.70;99.90;;;;;;5053575;28;20082;-59
2023/07/31 07:14:57;;;;;;;12.13;6.35;;;17.70;99.90;;;;;;5053447;28;20037;-60
2023/07/31 07:17:24;;;;;;;15.63;6.15;;;17.70;99.90;;;;;;5053572;28;20075;-60
2023/07/31 07:19:49;;;;;;;13.18;5.60;;;17.80;99.90;;;;;;5053552;28;20024;-59
2023/07/31 07:22:15;;;;;;;12.60;5.93;;;17.90;99.90;;;;;;5052123;28;20379;-59
2023/07/31 07:24:41;;;;;;;12.40;5.53;;;18.00;99.90;;;;;;5053828;28;20045;-59
2023/07/31 07:27:07;;;;;;;13.00;5.32;;;18.10;99.90;;;;;;5053904;28;20453;-59
2023/07/31 07:29:34;;;;;;;11.73;5.57;;;18.10;99.90;;;;;;5053355;28;20056;-60
2023/07/31 07:32:00;;;;;;;13.23;6.07;;;18.20;99.90;;;;;;5053202;28;20079;-59
2023/07/31 07:34:27;;;;;;;12.45;5.72;;;18.30;99.90;;;;;;5052897;28;20533;-60
2023/07/31 07:36:54;;;;;;;12.80;5.85;;;18.50;99.90;;;;;;5053411;28;20079;-59
2023/07/31 07:39:20;;;;;;;12.88;6.10;;;18.60;99.90;;;;;;5053149;28;20460;-59
2023/07/31 07:41:46;;;;;;;12.68;5.40;;;18.70;99.90;;;;;;5053271;28;20064;-59
2023/07/31 07:44:12;;;;;;;13.13;5.50;;;19.00;99.90;;;;;;5052964;28;20025;-59
2023/07/31 07:46:38;;;;;;;13.20;5.53;;;19.10;99.90;;;;;;5053268;28;20071;-59
2023/07/31 07:49:04;;;;;;;11.55;5.43;;;19.30;99.90;;;;;;5052642;28;20053;-59
2023/07/31 07:51:31;;;;;;;9.23;5.18;;;19.40;99.90;;;;;;5051985;28;20024;-59
2023/07/31 07:54:00;;;;;;;12.30;5.38;;;19.50;99.90;;;;;;5052828;28;20036;-59
2023/07/31 07:56:26;;;;;;;10.90;5.13;;;19.60;99.90;;;;;;5051485;28;20040;-59
2023/07/31 07:58:53;;;;;;;11.20;5.40;;;19.70;99.90;;;;;;5052564;28;20021;-59
2023/07/31 08:01:18;;;;;;;13.80;5.30;;;19.80;99.90;;;;;;5052799;28;20486;-60
2023/07/31 08:03:44;;;;;;;10.95;5.32;;;19.90;99.90;;;;;;5052240;28;20024;-59
2023/07/31 08:06:10;;;;;;;14.98;5.93;;;19.80;99.90;;;;;;5052889;28;20512;-60
2023/07/31 08:08:36;;;;;;;15.77;5.22;;;19.80;99.90;;;;;;5051482;28;20029;-60
2023/07/31 08:11:02;;;;;;;12.82;5.50;;;19.80;99.90;;;;;;5052524;28;20033;-59
2023/07/31 08:13:28;;;;;;;11.98;5.15;;;19.80;99.90;;;;;;5052617;28;20032;-60
2023/07/31 08:15:53;;;;;;;9.55;4.60;;;19.80;99.90;;;;;;5052098;28;20033;-60
2023/07/31 08:18:19;;;;;;;12.05;5.85;;;20.00;99.90;;;;;;5052388;28;20036;-59
2023/07/31 08:20:45;;;;;;;9.85;5.05;;;20.00;99.90;;;;;;5052302;28;20025;-60
2023/07/31 08:23:11;;;;;;;10.52;5.00;;;20.20;99.90;;;;;;5052413;28;20024;-60
2023/07/31 08:25:37;;;;;;;10.88;4.88;;;20.20;99.90;;;;;;5052186;28;20049;-60
2023/07/31 08:28:04;;;;;;;10.93;5.03;;;20.30;99.90;;;;;;5052603;28;20025;-60
2023/07/31 08:30:30;;;;;;;12.50;5.40;;;20.40;99.90;;;;;;5052186;28;20021;-59
2023/07/31 08:32:55;;;;;;;13.15;4.85;;;20.50;99.90;;;;;;5051873;28;20053;-60
2023/07/31 08:35:21;;;;;;;11.57;4.95;;;20.60;99.90;;;;;;5050812;28;20076;-59
2023/07/31 08:37:47;;;;;;;9.00;4.43;;;20.70;99.90;;;;;;5052126;28;20032;-60
2023/07/31 08:40:13;;;;;;;10.73;4.90;;;20.80;99.90;;;;;;5052024;28;20174;-59
2023/07/31 08:42:49;;;;;;;9.75;4.60;;;20.70;99.90;;;;;;5051782;28;20524;-59
2023/07/31 08:45:17;;;;;;;13.73;5.68;;;20.90;99.90;;;;;;5052217;28;20021;-59
2023/07/31 08:47:48;;;;;;;12.38;4.80;;;21.10;99.90;;;;;;5051595;28;20043;-59
2023/07/31 08:50:15;;;;;;;14.15;5.35;;;21.20;99.90;;;;;;5051839;28;20096;-59
2023/07/31 08:52:40;;;;;;;9.70;4.65;;;21.30;99.90;;;;;;5051766;28;20057;-59
2023/07/31 08:55:07;;;;;;;11.57;4.72;;;21.30;99.90;;;;;;5051615;28;20057;-59
2023/07/31 08:57:36;;;;;;;13.75;4.60;;;21.40;99.90;;;;;;5051916;28;20548;-59
2023/07/31 09:00:03;;;;;;;11.00;4.45;;;21.70;99.90;;;;;;5051850;28;20044;-59
2023/07/31 09:02:36;;;;;;;8.77;4.40;;;21.70;99.90;;;;;;5051239;28;20039;-58
2023/07/31 09:05:02;;;;;;;10.65;4.50;;;21.60;99.90;;;;;;5051604;28;20056;-59
2023/07/31 09:07:31;;;;;;;8.55;4.68;;;21.70;99.90;;;;;;5051529;28;20024;-59
2023/07/31 09:09:57;;;;;;;12.13;4.30;;;21.70;99.90;;;;;;5050751;28;20456;-59
2023/07/31 09:12:24;;;;;;;8.00;4.00;;;21.90;99.90;;;;;;5051567;28;20029;-58
2023/07/31 09:14:49;;;;;;;10.38;4.35;;;22.00;99.90;;;;;;5051471;28;20024;-59
2023/07/31 09:17:15;;;;;;;6.38;3.80;;;21.90;99.90;;;;;;5051011;28;20170;-58
2023/07/31 09:19:42;;;;;;;7.75;3.78;;;22.00;99.90;;;;;;5051287;28;20498;-59
2023/07/31 09:22:07;;;;;;;6.60;3.53;;;21.90;99.90;;;;;;5051725;28;20037;-59
2023/07/31 09:24:34;;;;;;;7.55;3.17;;;21.80;99.90;;;;;;5051191;28;20171;-58
2023/07/31 09:27:01;;;;;;;5.18;2.90;;;21.60;99.90;;;;;;5051350;28;20481;-59
2023/07/31 09:29:29;;;;;;;7.28;2.83;;;21.70;99.90;;;;;;5051449;28;20036;-59
2023/07/31 09:31:55;;;;;;;7.68;3.28;;;21.70;99.90;;;;;;5050953;28;20025;-58
2023/07/31 09:34:38;;;;;;;5.30;3.00;;;21.80;99.90;;;;;;5051261;28;20075;-59
2023/07/31 09:37:05;;;;;;;6.88;3.42;;;21.80;99.90;;;;;;5050993;28;20515;-58
2023/07/31 09:39:31;;;;;;;5.60;3.25;;;21.80;99.90;;;;;;5051047;28;20104;-59
2023/07/31 09:41:56;;;;;;;5.82;2.70;;;21.90;99.90;;;;;;5051448;28;20131;-58
2023/07/31 09:44:39;;;;;;;5.43;3.10;;;22.00;99.90;;;;;;5051008;28;20021;-59
2023/07/31 09:47:05;;;;;;;8.50;3.40;;;21.90;99.90;;;;;;5050811;28;20108;-58
2023/07/31 09:49:30;;;;;;;8.93;3.33;;;21.80;99.90;;;;;;5051046;28;20469;-59
2023/07/31 09:51:56;;;;;;;6.35;3.28;;;21.80;99.90;;;;;;5050911;28;20058;-59
2023/07/31 09:54:22;;;;;;;6.35;3.35;;;22.00;99.90;;;;;;5051377;28;20486;-60
2023/07/31 09:56:49;;;;;;;6.38;3.20;;;22.20;99.90;;;;;;5050673;28;20091;-60
2023/07/31 09:59:16;;;;;;;6.00;3.10;;;22.20;99.90;;;;;;5050578;28;20021;-60
2023/07/31 10:01:44;;;;;;;6.65;3.10;;;22.30;99.90;;;;;;5051411;28;20064;-60
2023/07/31 10:04:10;;;;;;;6.78;3.30;;;22.40;99.90;;;;;;5050808;28;20494;-60
2023/07/31 10:06:37;;;;;;;8.95;3.40;;;22.30;99.90;;;;;;5050724;28;20036;-60
2023/07/31 10:09:11;;;;;;;6.72;3.30;;;22.30;99.90;;;;;;5050732;28;20045;-60
2023/07/31 10:11:55;;;;;;;5.57;3.13;;;22.50;99.90;;;;;;5050604;28;20043;-60
2023/07/31 10:14:23;;;;;;;4.70;3.05;;;22.60;99.90;;;;;;5050698;28;20079;-59
2023/07/31 10:16:50;;;;;;;7.20;4.18;;;22.80;99.90;;;;;;5050559;28;20036;-60
2023/07/31 10:19:17;;;;;;;6.20;3.60;;;23.00;99.90;;;;;;5050681;28;20013;-60
2023/07/31 10:21:43;;;;;;;5.47;3.40;;;23.10;99.90;;;;;;5052169;28;20087;-60
2023/07/31 10:24:09;;;;;;;6.65;3.08;;;23.20;99.90;;;;;;5054394;28;20049;-60
2023/07/31 10:26:37;;;;;;;5.88;3.05;;;23.30;99.90;;;;;;5054822;28;20036;-60
2023/07/31 10:29:03;;;;;;;5.07;2.78;;;23.50;99.90;;;;;;5054101;28;20395;-60
2023/07/31 10:31:29;;;;;;;5.68;2.63;;;23.70;99.90;;;;;;5054469;28;20025;-60
2023/07/31 10:33:58;;;;;;;4.63;2.90;;;23.50;99.90;;;;;;5054432;28;20085;-59
2023/07/31 10:36:25;;;;;;;5.57;2.70;;;23.60;99.90;;;;;;5054335;28;20043;-59
2023/07/31 10:38:51;;;;;;;5.28;2.70;;;23.50;99.90;;;;;;5054168;28;20036;-60
2023/07/31 10:41:17;;;;;;;4.07;2.80;;;23.60;99.90;;;;;;5054560;28;20033;-60
2023/07/31 10:43:43;;;;;;;6.20;2.80;;;23.70;99.90;;;;;;5053959;28;20104;-60
2023/07/31 10:46:13;;;;;;;4.75;2.75;;;23.70;99.90;;;;;;5054026;28;20147;-60
2023/07/31 10:48:41;;;;;;;5.20;2.60;;;23.70;99.90;;;;;;5054154;28;20493;-60
2023/07/31 10:51:16;;;;;;;4.68;2.60;;;23.60;99.90;;;;;;5054024;28;20525;-60
2023/07/31 10:53:41;;;;;;;5.40;2.92;;;23.50;99.90;;;;;;5054227;28;20103;-60
2023/07/31 10:56:18;;;;;;;4.78;3.00;;;23.50;99.90;;;;;;5053951;28;20550;-60
2023/07/31 10:58:45;;;;;;;5.13;2.80;;;23.40;99.90;;;;;;5053624;28;20509;-60
2023/07/31 11:01:11;;;;;;;4.88;2.70;;;23.50;99.90;;;;;;5053949;28;20116;-60
2023/07/31 11:03:49;;;;;;;4.57;3.00;;;23.50;99.90;;;;;;5053807;28;20151;-60
2023/07/31 11:06:16;;;;;;;4.93;2.85;;;23.60;99.90;;;;;;5053858;28;20100;-59
2023/07/31 11:08:44;;;;;;;4.75;2.97;;;23.70;99.90;;;;;;5053711;28;20580;-59
2023/07/31 11:11:12;;;;;;;3.75;2.63;;;23.70;99.90;;;;;;5053777;28;20055;-59
2023/07/31 11:13:51;;;;;;;5.07;3.00;;;23.50;99.90;;;;;;5053604;28;20078;-60
2023/07/31 11:16:19;;;;;;;7.45;3.30;;;23.40;99.90;;;;;;5053528;28;20539;-59
2023/07/31 11:18:48;;;;;;;6.78;3.15;;;23.50;99.90;;;;;;5053427;28;20017;-60
2023/07/31 11:21:22;;;;;;;4.45;2.50;;;23.70;99.90;;;;;;5053624;28;20057;-59
2023/07/31 11:23:55;;;;;;;6.03;2.45;;;23.80;99.90;;;;;;5053263;28;20068;-59
2023/07/31 11:26:23;;;;;;;6.30;3.20;;;23.90;99.90;;;;;;5053175;28;20063;-59
2023/07/31 11:28:49;;;;;;;6.45;2.70;;;24.00;99.90;;;;;;5053385;28;20575;-59
2023/07/31 11:31:15;;;;;;;3.75;2.75;;;24.20;99.90;;;;;;5053403;28;20028;-59
2023/07/31 11:33:40;;;;;;;6.40;3.00;;;24.40;99.90;;;;;;5052651;28;20493;-59
2023/07/31 11:36:16;;;;;;;5.30;2.85;;;24.50;99.90;;;;;;5053057;28;20051;-60
2023/07/31 11:38:42;;;;;;;5.57;2.65;;;24.60;99.90;;;;;;5053679;28;20452;-60
2023/07/31 11:41:07;;;;;;;5.00;2.80;;;24.70;99.90;;;;;;5053066;28;20036;-59
2023/07/31 11:43:33;;;;;;;6.40;2.60;;;24.60;99.90;;;;;;5053079;28;20083;-59
2023/07/31 11:46:03;;;;;;;4.82;2.40;;;24.70;99.90;;;;;;5053056;28;20027;-59
2023/07/31 11:48:33;;;;;;;4.68;2.80;;;24.60;99.90;;;;;;5053103;28;20098;-59
2023/07/31 11:51:03;;;;;;;4.35;2.88;;;24.70;99.90;;;;;;5053025;28;20025;-58
2023/07/31 11:53:35;;;;;;;5.40;2.55;;;24.80;99.90;;;;;;5053168;28;20036;-59
2023/07/31 11:56:02;;;;;;;4.18;2.72;;;24.80;99.90;;;;;;5052500;28;20037;-59
2023/07/31 11:58:29;;;;;;;5.22;3.10;;;24.90;99.90;;;;;;5052782;28;20486;-58
2023/07/31 12:00:56;;;;;;;5.55;2.75;;;25.00;99.90;;;;;;5052750;28;20036;-59
2023/07/31 12:03:22;;;;;;;5.28;2.50;;;25.10;99.90;;;;;;5052931;28;20517;-60
2023/07/31 12:05:48;;;;;;;4.85;2.70;;;24.90;99.90;;;;;;5052669;28;20108;-59
2023/07/31 12:08:15;;;;;;;6.05;2.67;;;24.80;99.90;;;;;;5053047;28;20017;-59
2023/07/31 12:10:41;;;;;;;4.15;2.65;;;24.80;99.90;;;;;;5052231;28;20045;-59
2023/07/31 12:13:21;;;;;;;5.65;2.55;;;24.60;99.90;;;;;;5051065;28;20036;-59
2023/07/31 12:15:48;;;;;;;4.90;2.75;;;24.50;99.90;;;;;;5052470;28;20037;-59
2023/07/31 12:18:16;;;;;;;6.18;3.10;;;24.70;99.90;;;;;;5052321;28;20104;-59
2023/07/31 12:20:45;;;;;;;4.18;2.80;;;24.70;99.90;;;;;;5052742;28;20547;-59
2023/07/31 12:23:29;;;;;;;4.28;2.90;;;24.80;99.90;;;;;;5052200;28;20021;-59
2023/07/31 12:26:11;;;;;;;;;;;24.80;99.90;;;;;;5052231;28;20036;-60
2023/07/31 12:28:38;;;;;;;5.80;2.78;;;24.90;99.90;;;;;;5052647;28;20003;-59
2023/07/31 12:31:04;;;;;;;4.07;2.65;;;25.00;99.90;;;;;;5052310;28;20021;-59
2023/07/31 12:33:38;;;;;;;4.35;2.75;;;25.00;99.90;;;;;;5052112;28;20025;-59
2023/07/31 12:36:07;;;;;;;5.03;3.08;;;25.00;99.90;;;;;;5051860;28;20406;-60
2023/07/31 12:38:33;;;;;;;3.50;2.58;;;24.80;99.90;;;;;;5052099;28;20059;-60